sensor_id;sensor_type;location;lat;lon;timestamp;temperature;humidity
10089;DHT22;51898;49.864;8.550;2023-07-20T00:02:04;19.90;58.60
10089;DHT22;51898;49.864;8.550;2023-07-20T00:05:07;19.80;58.90
10089;DHT22;51898;49.864;8.550;2023-07-20T00:08:09;19.80;59.30
10089;DHT22;51898;49.864;8.550;2023-07-20T00:11:10;19.80;59.40
10089;DHT22;51898;49.864;8.550;2023-07-20T00:14:12;19.80;59.20
10089;DHT22;51898;49.864;8.550;2023-07-20T00:17:14;19.80;59.30
10089;DHT22;51898;49.864;8.550;2023-07-20T00:20:16;19.90;59.20
10089;DHT22;51898;49.864;8.550;2023-07-20T00:23:18;19.90;59.30
10089;DHT22;51898;49.864;8.550;2023-07-20T00:26:23;19.90;59.90
10089;DHT22;51898;49.864;8.550;2023-07-20T00:29:26;19.90;60.10
10089;DHT22;51898;49.864;8.550;2023-07-20T00:32:28;19.90;60.40
10089;DHT22;51898;49.864;8.550;2023-07-20T00:35:29;19.90;60.70
10089;DHT22;51898;49.864;8.550;2023-07-20T00:38:31;19.80;60.70
10089;DHT22;51898;49.864;8.550;2023-07-20T00:41:33;19.80;60.90
10089;DHT22;51898;49.864;8.550;2023-07-20T00:44:35;19.80;61.40
10089;DHT22;51898;49.864;8.550;2023-07-20T00:47:36;19.70;62.00
10089;DHT22;51898;49.864;8.550;2023-07-20T00:50:39;19.50;62.50
10089;DHT22;51898;49.864;8.550;2023-07-20T00:53:41;19.40;62.60
10089;DHT22;51898;49.864;8.550;2023-07-20T00:56:44;19.30;62.60
10089;DHT22;51898;49.864;8.550;2023-07-20T00:59:45;19.10;62.70
10089;DHT22;51898;49.864;8.550;2023-07-20T01:02:47;19.00;63.20
10089;DHT22;51898;49.864;8.550;2023-07-20T01:06:14;18.90;63.60
10089;DHT22;51898;49.864;8.550;2023-07-20T01:09:20;18.70;64.30
10089;DHT22;51898;49.864;8.550;2023-07-20T01:12:44;18.70;64.80
10089;DHT22;51898;49.864;8.550;2023-07-20T01:15:56;18.50;65.10
10089;DHT22;51898;49.864;8.550;2023-07-20T01:18:59;18.40;65.50
10089;DHT22;51898;49.864;8.550;2023-07-20T01:22:31;18.40;65.60
10089;DHT22;51898;49.864;8.550;2023-07-20T01:32:24;18.30;66.40
10089;DHT22;51898;49.864;8.550;2023-07-20T01:35:29;18.10;66.90
10089;DHT22;51898;49.864;8.550;2023-07-20T01:38:31;18.00;67.70
10089;DHT22;51898;49.864;8.550;2023-07-20T01:41:34;17.90;67.50
10089;DHT22;51898;49.864;8.550;2023-07-20T01:44:37;17.80;67.80
10089;DHT22;51898;49.864;8.550;2023-07-20T01:47:39;17.70;68.10
10089;DHT22;51898;49.864;8.550;2023-07-20T01:50:41;17.60;68.10
10089;DHT22;51898;49.864;8.550;2023-07-20T01:53:43;17.60;68.40
10089;DHT22;51898;49.864;8.550;2023-07-20T01:56:44;17.50;68.40
10089;DHT22;51898;49.864;8.550;2023-07-20T01:59:46;17.50;67.90
10089;DHT22;51898;49.864;8.550;2023-07-20T02:02:48;17.50;67.70
10089;DHT22;51898;49.864;8.550;2023-07-20T02:05:50;17.50;66.70
10089;DHT22;51898;49.864;8.550;2023-07-20T02:08:51;17.40;66.70
10089;DHT22;51898;49.864;8.550;2023-07-20T02:11:54;17.50;66.80
10089;DHT22;51898;49.864;8.550;2023-07-20T02:14:56;17.50;66.70
10089;DHT22;51898;49.864;8.550;2023-07-20T02:17:57;17.40;66.50
10089;DHT22;51898;49.864;8.550;2023-07-20T02:20:59;17.50;66.60
10089;DHT22;51898;49.864;8.550;2023-07-20T02:24:01;17.40;66.60
10089;DHT22;51898;49.864;8.550;2023-07-20T02:27:03;17.50;66.80
10089;DHT22;51898;49.864;8.550;2023-07-20T02:30:05;17.40;67.10
10089;DHT22;51898;49.864;8.550;2023-07-20T02:33:07;17.30;67.30
10089;DHT22;51898;49.864;8.550;2023-07-20T02:36:09;17.30;67.70
10089;DHT22;51898;49.864;8.550;2023-07-20T02:39:11;17.20;67.80
10089;DHT22;51898;49.864;8.550;2023-07-20T02:42:12;17.10;68.00
10089;DHT22;51898;49.864;8.550;2023-07-20T02:45:15;17.00;68.50
10089;DHT22;51898;49.864;8.550;2023-07-20T02:48:17;17.00;68.70
10089;DHT22;51898;49.864;8.550;2023-07-20T02:51:20;16.90;69.30
10089;DHT22;51898;49.864;8.550;2023-07-20T02:54:22;16.70;69.50
10089;DHT22;51898;49.864;8.550;2023-07-20T02:57:23;16.70;69.80
10089;DHT22;51898;49.864;8.550;2023-07-20T03:00:25;16.60;70.10
10089;DHT22;51898;49.864;8.550;2023-07-20T03:03:27;16.60;70.60
10089;DHT22;51898;49.864;8.550;2023-07-20T03:06:28;16.50;71.20
10089;DHT22;51898;49.864;8.550;2023-07-20T03:09:30;16.40;71.30
10089;DHT22;51898;49.864;8.550;2023-07-20T03:12:32;16.40;71.60
10089;DHT22;51898;49.864;8.550;2023-07-20T03:15:35;16.40;71.60
10089;DHT22;51898;49.864;8.550;2023-07-20T03:18:38;16.40;71.80
10089;DHT22;51898;49.864;8.550;2023-07-20T03:21:40;16.30;72.20
10089;DHT22;51898;49.864;8.550;2023-07-20T03:24:42;16.30;72.20
10089;DHT22;51898;49.864;8.550;2023-07-20T03:27:44;16.30;72.00
10089;DHT22;51898;49.864;8.550;2023-07-20T03:30:46;16.30;71.90
10089;DHT22;51898;49.864;8.550;2023-07-20T03:33:48;16.30;72.20
10089;DHT22;51898;49.864;8.550;2023-07-20T03:36:49;16.20;72.00
10089;DHT22;51898;49.864;8.550;2023-07-20T03:39:51;16.20;72.20
10089;DHT22;51898;49.864;8.550;2023-07-20T03:42:53;16.20;72.20
10089;DHT22;51898;49.864;8.550;2023-07-20T03:45:54;16.20;72.20
10089;DHT22;51898;49.864;8.550;2023-07-20T03:48:57;16.10;72.80
10089;DHT22;51898;49.864;8.550;2023-07-20T03:51:59;16.00;73.20
10089;DHT22;51898;49.864;8.550;2023-07-20T03:55:01;16.00;73.30
10089;DHT22;51898;49.864;8.550;2023-07-20T03:58:02;16.00;73.50
10089;DHT22;51898;49.864;8.550;2023-07-20T04:01:04;16.00;73.70
10089;DHT22;51898;49.864;8.550;2023-07-20T04:04:07;16.00;74.00
10089;DHT22;51898;49.864;8.550;2023-07-20T04:07:09;15.90;74.20
10089;DHT22;51898;49.864;8.550;2023-07-20T04:10:11;16.00;74.20
10089;DHT22;51898;49.864;8.550;2023-07-20T04:13:13;15.90;74.50
10089;DHT22;51898;49.864;8.550;2023-07-20T04:16:15;15.90;74.70
10089;DHT22;51898;49.864;8.550;2023-07-20T04:19:17;15.90;74.90
10089;DHT22;51898;49.864;8.550;2023-07-20T04:22:19;16.00;74.80
10089;DHT22;51898;49.864;8.550;2023-07-20T04:25:21;16.20;74.30
10089;DHT22;51898;49.864;8.550;2023-07-20T04:28:23;16.50;73.60
10089;DHT22;51898;49.864;8.550;2023-07-20T04:31:25;16.90;72.10
10089;DHT22;51898;49.864;8.550;2023-07-20T04:34:26;17.30;70.90
10089;DHT22;51898;49.864;8.550;2023-07-20T04:37:28;17.60;69.70
10089;DHT22;51898;49.864;8.550;2023-07-20T04:40:30;18.00;68.00
10089;DHT22;51898;49.864;8.550;2023-07-20T04:43:31;18.30;66.50
10089;DHT22;51898;49.864;8.550;2023-07-20T04:46:33;18.70;65.60
10089;DHT22;51898;49.864;8.550;2023-07-20T04:49:35;18.80;64.70
10089;DHT22;51898;49.864;8.550;2023-07-20T04:52:36;19.10;63.70
10089;DHT22;51898;49.864;8.550;2023-07-20T04:55:48;19.30;63.10
10089;DHT22;51898;49.864;8.550;2023-07-20T04:58:54;19.60;62.70
10089;DHT22;51898;49.864;8.550;2023-07-20T05:01:55;19.70;62.10
10089;DHT22;51898;49.864;8.550;2023-07-20T05:04:57;19.80;62.20
10089;DHT22;51898;49.864;8.550;2023-07-20T05:07:59;19.90;62.00
10089;DHT22;51898;49.864;8.550;2023-07-20T05:11:01;20.10;61.00
10089;DHT22;51898;49.864;8.550;2023-07-20T05:14:02;20.20;60.90
10089;DHT22;51898;49.864;8.550;2023-07-20T05:17:04;20.30;60.50
10089;DHT22;51898;49.864;8.550;2023-07-20T05:20:07;20.40;60.20
10089;DHT22;51898;49.864;8.550;2023-07-20T05:23:11;20.30;60.80
10089;DHT22;51898;49.864;8.550;2023-07-20T05:26:13;20.30;60.30
10089;DHT22;51898;49.864;8.550;2023-07-20T05:29:14;20.20;60.60
10089;DHT22;51898;49.864;8.550;2023-07-20T05:32:17;20.30;62.70
10089;DHT22;51898;49.864;8.550;2023-07-20T05:35:18;20.30;61.60
10089;DHT22;51898;49.864;8.550;2023-07-20T05:38:20;20.30;61.30
10089;DHT22;51898;49.864;8.550;2023-07-20T05:41:22;20.30;61.30
10089;DHT22;51898;49.864;8.550;2023-07-20T05:44:24;20.40;61.70
10089;DHT22;51898;49.864;8.550;2023-07-20T05:47:26;20.40;61.20
10089;DHT22;51898;49.864;8.550;2023-07-20T05:50:28;20.40;61.50
10089;DHT22;51898;49.864;8.550;2023-07-20T05:53:29;20.30;62.20
10089;DHT22;51898;49.864;8.550;2023-07-20T05:56:31;20.40;62.70
10089;DHT22;51898;49.864;8.550;2023-07-20T05:59:33;20.50;62.00
10089;DHT22;51898;49.864;8.550;2023-07-20T06:02:35;20.60;60.80
10089;DHT22;51898;49.864;8.550;2023-07-20T06:05:36;20.70;60.50
10089;DHT22;51898;49.864;8.550;2023-07-20T06:08:38;20.80;60.80
10089;DHT22;51898;49.864;8.550;2023-07-20T06:11:40;20.90;59.90
10089;DHT22;51898;49.864;8.550;2023-07-20T06:14:42;21.00;59.60
10089;DHT22;51898;49.864;8.550;2023-07-20T06:17:44;21.20;59.50
10089;DHT22;51898;49.864;8.550;2023-07-20T06:20:50;21.40;59.20
10089;DHT22;51898;49.864;8.550;2023-07-20T06:23:52;21.50;58.80
10089;DHT22;51898;49.864;8.550;2023-07-20T06:26:53;21.60;57.80
10089;DHT22;51898;49.864;8.550;2023-07-20T06:29:55;21.20;57.80
10089;DHT22;51898;49.864;8.550;2023-07-20T06:32:57;21.20;58.40
10089;DHT22;51898;49.864;8.550;2023-07-20T06:35:59;21.10;57.70
10089;DHT22;51898;49.864;8.550;2023-07-20T06:39:00;21.10;58.10
10089;DHT22;51898;49.864;8.550;2023-07-20T06:42:07;21.10;57.90
10089;DHT22;51898;49.864;8.550;2023-07-20T06:45:09;21.10;57.40
10089;DHT22;51898;49.864;8.550;2023-07-20T06:48:11;21.20;57.50
10089;DHT22;51898;49.864;8.550;2023-07-20T06:51:13;21.30;57.60
10089;DHT22;51898;49.864;8.550;2023-07-20T06:54:15;21.30;57.20
10089;DHT22;51898;49.864;8.550;2023-07-20T06:57:17;21.30;59.00
10089;DHT22;51898;49.864;8.550;2023-07-20T07:00:20;21.30;58.00
10089;DHT22;51898;49.864;8.550;2023-07-20T07:03:22;21.30;57.60
10089;DHT22;51898;49.864;8.550;2023-07-20T07:06:29;21.20;58.20
10089;DHT22;51898;49.864;8.550;2023-07-20T07:09:31;21.20;58.20
10089;DHT22;51898;49.864;8.550;2023-07-20T07:12:33;21.10;59.50
10089;DHT22;51898;49.864;8.550;2023-07-20T07:15:35;21.20;59.20
10089;DHT22;51898;49.864;8.550;2023-07-20T07:18:39;21.30;58.10
10089;DHT22;51898;49.864;8.550;2023-07-20T07:21:41;21.40;57.80
10089;DHT22;51898;49.864;8.550;2023-07-20T07:24:43;21.40;58.40
10089;DHT22;51898;49.864;8.550;2023-07-20T07:27:45;21.40;58.10
10089;DHT22;51898;49.864;8.550;2023-07-20T07:30:46;21.30;58.50
10089;DHT22;51898;49.864;8.550;2023-07-20T07:33:48;21.50;58.40
10089;DHT22;51898;49.864;8.550;2023-07-20T07:36:50;21.90;57.10
10089;DHT22;51898;49.864;8.550;2023-07-20T07:39:52;22.40;56.10
10089;DHT22;51898;49.864;8.550;2023-07-20T07:42:54;22.90;54.70
10089;DHT22;51898;49.864;8.550;2023-07-20T07:45:55;23.00;54.00
10089;DHT22;51898;49.864;8.550;2023-07-20T07:48:57;23.10;53.70
10089;DHT22;51898;49.864;8.550;2023-07-20T07:51:58;23.10;53.90
10089;DHT22;51898;49.864;8.550;2023-07-20T07:55:04;23.20;53.20
10089;DHT22;51898;49.864;8.550;2023-07-20T07:58:06;23.20;53.10
10089;DHT22;51898;49.864;8.550;2023-07-20T08:01:07;23.30;53.80
10089;DHT22;51898;49.864;8.550;2023-07-20T08:04:09;23.60;53.00
10089;DHT22;51898;49.864;8.550;2023-07-20T08:07:11;23.80;52.30
10089;DHT22;51898;49.864;8.550;2023-07-20T08:10:13;23.90;51.70
10089;DHT22;51898;49.864;8.550;2023-07-20T08:13:14;24.20;51.00
10089;DHT22;51898;49.864;8.550;2023-07-20T08:16:16;24.20;50.10
10089;DHT22;51898;49.864;8.550;2023-07-20T08:19:18;24.00;49.90
10089;DHT22;51898;49.864;8.550;2023-07-20T08:22:21;24.40;49.50
10089;DHT22;51898;49.864;8.550;2023-07-20T08:25:22;24.30;49.70
10089;DHT22;51898;49.864;8.550;2023-07-20T08:28:24;24.10;49.80
10089;DHT22;51898;49.864;8.550;2023-07-20T08:31:27;23.80;50.30
10089;DHT22;51898;49.864;8.550;2023-07-20T08:34:30;23.60;51.10
10089;DHT22;51898;49.864;8.550;2023-07-20T08:37:32;23.70;50.50
10089;DHT22;51898;49.864;8.550;2023-07-20T08:40:44;24.00;50.50
10089;DHT22;51898;49.864;8.550;2023-07-20T08:43:46;24.20;50.20
10089;DHT22;51898;49.864;8.550;2023-07-20T08:46:49;24.00;50.30
10089;DHT22;51898;49.864;8.550;2023-07-20T08:49:50;24.10;50.30
10089;DHT22;51898;49.864;8.550;2023-07-20T08:52:52;24.40;49.70
10089;DHT22;51898;49.864;8.550;2023-07-20T08:55:55;24.60;48.80
10089;DHT22;51898;49.864;8.550;2023-07-20T08:58:57;24.50;48.80
10089;DHT22;51898;49.864;8.550;2023-07-20T09:02:01;24.60;48.10
10089;DHT22;51898;49.864;8.550;2023-07-20T09:05:04;24.60;47.90
10089;DHT22;51898;49.864;8.550;2023-07-20T09:08:07;24.50;48.30
10089;DHT22;51898;49.864;8.550;2023-07-20T09:11:12;24.50;47.80
10089;DHT22;51898;49.864;8.550;2023-07-20T09:14:15;24.30;47.00
10089;DHT22;51898;49.864;8.550;2023-07-20T09:17:17;24.10;47.50
10089;DHT22;51898;49.864;8.550;2023-07-20T09:20:20;24.40;48.70
10089;DHT22;51898;49.864;8.550;2023-07-20T09:23:34;24.30;49.30
10089;DHT22;51898;49.864;8.550;2023-07-20T09:26:41;24.30;49.10
10089;DHT22;51898;49.864;8.550;2023-07-20T09:29:51;24.50;49.00
10089;DHT22;51898;49.864;8.550;2023-07-20T09:32:53;24.60;47.10
10089;DHT22;51898;49.864;8.550;2023-07-20T09:36:02;24.90;48.80
10089;DHT22;51898;49.864;8.550;2023-07-20T09:39:24;25.00;48.40
10089;DHT22;51898;49.864;8.550;2023-07-20T09:42:28;25.40;47.50
10089;DHT22;51898;49.864;8.550;2023-07-20T09:45:33;25.30;45.50
10089;DHT22;51898;49.864;8.550;2023-07-20T09:48:38;24.90;45.90
10089;DHT22;51898;49.864;8.550;2023-07-20T09:52:01;24.80;46.10
10089;DHT22;51898;49.864;8.550;2023-07-20T09:55:04;24.90;44.50
10089;DHT22;51898;49.864;8.550;2023-07-20T09:58:06;25.00;44.90
10089;DHT22;51898;49.864;8.550;2023-07-20T10:01:11;25.00;45.70
10089;DHT22;51898;49.864;8.550;2023-07-20T10:04:16;25.00;45.40
10089;DHT22;51898;49.864;8.550;2023-07-20T10:07:22;25.10;44.70
10089;DHT22;51898;49.864;8.550;2023-07-20T10:10:25;25.40;44.20
10089;DHT22;51898;49.864;8.550;2023-07-20T10:13:28;25.60;44.20
10089;DHT22;51898;49.864;8.550;2023-07-20T10:16:38;25.70;44.50
10089;DHT22;51898;49.864;8.550;2023-07-20T10:19:48;25.90;43.80
10089;DHT22;51898;49.864;8.550;2023-07-20T10:22:53;25.90;43.20
10089;DHT22;51898;49.864;8.550;2023-07-20T10:25:58;26.00;43.00
10089;DHT22;51898;49.864;8.550;2023-07-20T10:29:01;25.80;43.20
10089;DHT22;51898;49.864;8.550;2023-07-20T10:32:05;25.80;42.70
10089;DHT22;51898;49.864;8.550;2023-07-20T10:35:16;25.80;43.50
10089;DHT22;51898;49.864;8.550;2023-07-20T10:38:18;26.10;42.60
10089;DHT22;51898;49.864;8.550;2023-07-20T10:41:20;26.40;43.30
10089;DHT22;51898;49.864;8.550;2023-07-20T10:44:23;26.40;42.30
10089;DHT22;51898;49.864;8.550;2023-07-20T10:47:25;26.30;42.70
10089;DHT22;51898;49.864;8.550;2023-07-20T10:50:29;26.30;42.50
10089;DHT22;51898;49.864;8.550;2023-07-20T10:53:30;26.60;42.20
10089;DHT22;51898;49.864;8.550;2023-07-20T10:56:32;26.80;41.90
10089;DHT22;51898;49.864;8.550;2023-07-20T11:02:48;26.60;41.90
10089;DHT22;51898;49.864;8.550;2023-07-20T11:05:53;26.60;42.30
10089;DHT22;51898;49.864;8.550;2023-07-20T11:08:56;26.60;42.10
10089;DHT22;51898;49.864;8.550;2023-07-20T11:12:10;26.40;41.50
10089;DHT22;51898;49.864;8.550;2023-07-20T11:15:12;26.80;41.10
10089;DHT22;51898;49.864;8.550;2023-07-20T11:18:14;27.00;41.20
10089;DHT22;51898;49.864;8.550;2023-07-20T11:21:16;27.30;40.10
10089;DHT22;51898;49.864;8.550;2023-07-20T11:24:18;27.20;40.10
10089;DHT22;51898;49.864;8.550;2023-07-20T11:27:20;27.10;40.30
10089;DHT22;51898;49.864;8.550;2023-07-20T11:30:24;26.80;41.10
10089;DHT22;51898;49.864;8.550;2023-07-20T11:33:26;26.70;40.60
10089;DHT22;51898;49.864;8.550;2023-07-20T11:36:28;26.80;40.80
10089;DHT22;51898;49.864;8.550;2023-07-20T11:39:33;26.80;41.10
10089;DHT22;51898;49.864;8.550;2023-07-20T11:42:34;26.50;41.00
10089;DHT22;51898;49.864;8.550;2023-07-20T11:45:39;26.30;41.20
10089;DHT22;51898;49.864;8.550;2023-07-20T11:48:41;26.00;42.00
10089;DHT22;51898;49.864;8.550;2023-07-20T11:51:43;26.00;42.50
10089;DHT22;51898;49.864;8.550;2023-07-20T11:54:45;26.00;41.80
10089;DHT22;51898;49.864;8.550;2023-07-20T11:58:07;26.20;41.70
10089;DHT22;51898;49.864;8.550;2023-07-20T12:01:09;26.20;41.10
10089;DHT22;51898;49.864;8.550;2023-07-20T12:04:12;26.00;41.10
10089;DHT22;51898;49.864;8.550;2023-07-20T12:07:14;25.70;42.20
10089;DHT22;51898;49.864;8.550;2023-07-20T12:10:16;25.90;42.50
10089;DHT22;51898;49.864;8.550;2023-07-20T12:13:18;26.10;41.90
10089;DHT22;51898;49.864;8.550;2023-07-20T12:16:20;26.40;41.80
10089;DHT22;51898;49.864;8.550;2023-07-20T12:19:25;26.60;41.30
10089;DHT22;51898;49.864;8.550;2023-07-20T12:22:27;26.70;41.80
10089;DHT22;51898;49.864;8.550;2023-07-20T12:28:38;26.60;41.00
10089;DHT22;51898;49.864;8.550;2023-07-20T12:31:40;26.60;40.60
10089;DHT22;51898;49.864;8.550;2023-07-20T12:34:41;26.70;40.40
10089;DHT22;51898;49.864;8.550;2023-07-20T12:37:43;26.80;40.90
10089;DHT22;51898;49.864;8.550;2023-07-20T12:40:45;27.00;40.30
10089;DHT22;51898;49.864;8.550;2023-07-20T12:43:47;27.40;40.10
10089;DHT22;51898;49.864;8.550;2023-07-20T12:46:48;27.90;39.30
10089;DHT22;51898;49.864;8.550;2023-07-20T12:49:50;28.50;38.10
10089;DHT22;51898;49.864;8.550;2023-07-20T12:52:52;28.60;37.20
10089;DHT22;51898;49.864;8.550;2023-07-20T12:55:54;28.50;37.60
10089;DHT22;51898;49.864;8.550;2023-07-20T12:58:55;28.80;37.10
10089;DHT22;51898;49.864;8.550;2023-07-20T13:01:57;28.80;36.90
10089;DHT22;51898;49.864;8.550;2023-07-20T13:04:59;28.70;36.90
10089;DHT22;51898;49.864;8.550;2023-07-20T13:08:02;28.60;37.10
10089;DHT22;51898;49.864;8.550;2023-07-20T13:11:07;28.40;37.10
10089;DHT22;51898;49.864;8.550;2023-07-20T13:14:08;28.00;38.30
10089;DHT22;51898;49.864;8.550;2023-07-20T13:17:10;27.70;38.90
10089;DHT22;51898;49.864;8.550;2023-07-20T13:20:12;27.60;39.00
10089;DHT22;51898;49.864;8.550;2023-07-20T13:23:14;27.50;38.90
10089;DHT22;51898;49.864;8.550;2023-07-20T13:26:16;27.40;38.80
10089;DHT22;51898;49.864;8.550;2023-07-20T13:29:18;27.40;39.00
10089;DHT22;51898;49.864;8.550;2023-07-20T13:32:20;27.50;39.40
10089;DHT22;51898;49.864;8.550;2023-07-20T13:35:22;27.60;38.70
10089;DHT22;51898;49.864;8.550;2023-07-20T13:38:23;27.60;38.90
10089;DHT22;51898;49.864;8.550;2023-07-20T13:41:25;27.70;39.00
10089;DHT22;51898;49.864;8.550;2023-07-20T13:44:27;27.50;39.20
10089;DHT22;51898;49.864;8.550;2023-07-20T13:47:31;27.50;39.30
10089;DHT22;51898;49.864;8.550;2023-07-20T13:50:33;27.80;38.90
10089;DHT22;51898;49.864;8.550;2023-07-20T13:53:37;28.00;38.50
10089;DHT22;51898;49.864;8.550;2023-07-20T13:56:42;28.10;38.50
10089;DHT22;51898;49.864;8.550;2023-07-20T13:59:44;27.90;37.80
10089;DHT22;51898;49.864;8.550;2023-07-20T14:02:46;27.80;37.70
10089;DHT22;51898;49.864;8.550;2023-07-20T14:05:51;27.60;38.70
10089;DHT22;51898;49.864;8.550;2023-07-20T14:08:56;27.90;38.30
10089;DHT22;51898;49.864;8.550;2023-07-20T14:11:58;28.10;38.30
10089;DHT22;51898;49.864;8.550;2023-07-20T14:15:03;28.40;37.80
10089;DHT22;51898;49.864;8.550;2023-07-20T14:18:06;28.70;38.00
10089;DHT22;51898;49.864;8.550;2023-07-20T14:21:10;29.10;36.80
10089;DHT22;51898;49.864;8.550;2023-07-20T14:24:12;29.60;35.70
10089;DHT22;51898;49.864;8.550;2023-07-20T14:27:14;29.90;35.40
10089;DHT22;51898;49.864;8.550;2023-07-20T14:30:15;30.00;34.40
10089;DHT22;51898;49.864;8.550;2023-07-20T14:33:17;29.20;35.10
10089;DHT22;51898;49.864;8.550;2023-07-20T14:36:19;29.00;36.10
10089;DHT22;51898;49.864;8.550;2023-07-20T14:39:20;28.60;35.60
10089;DHT22;51898;49.864;8.550;2023-07-20T14:42:22;28.40;36.20
10089;DHT22;51898;49.864;8.550;2023-07-20T14:45:24;28.60;35.90
10089;DHT22;51898;49.864;8.550;2023-07-20T14:48:25;28.60;35.80
10089;DHT22;51898;49.864;8.550;2023-07-20T14:51:27;28.80;36.00
10089;DHT22;51898;49.864;8.550;2023-07-20T14:54:37;29.00;34.80
10089;DHT22;51898;49.864;8.550;2023-07-20T14:57:39;29.30;35.50
10089;DHT22;51898;49.864;8.550;2023-07-20T15:00:41;29.60;33.90
10089;DHT22;51898;49.864;8.550;2023-07-20T15:03:42;29.50;33.90
10089;DHT22;51898;49.864;8.550;2023-07-20T15:06:44;29.90;33.00
10089;DHT22;51898;49.864;8.550;2023-07-20T15:09:46;29.90;32.80
10089;DHT22;51898;49.864;8.550;2023-07-20T15:12:48;29.90;33.30
10089;DHT22;51898;49.864;8.550;2023-07-20T15:15:49;29.90;33.20
10089;DHT22;51898;49.864;8.550;2023-07-20T15:18:51;29.60;33.60
10089;DHT22;51898;49.864;8.550;2023-07-20T15:21:53;29.60;33.80
10089;DHT22;51898;49.864;8.550;2023-07-20T15:24:55;29.10;34.00
10089;DHT22;51898;49.864;8.550;2023-07-20T15:27:56;28.90;34.10
10089;DHT22;51898;49.864;8.550;2023-07-20T15:31:02;28.40;34.80
10089;DHT22;51898;49.864;8.550;2023-07-20T15:34:04;28.40;34.90
10089;DHT22;51898;49.864;8.550;2023-07-20T15:37:07;28.40;35.00
10089;DHT22;51898;49.864;8.550;2023-07-20T15:40:09;28.40;35.10
10089;DHT22;51898;49.864;8.550;2023-07-20T15:43:11;28.00;35.40
10089;DHT22;51898;49.864;8.550;2023-07-20T15:49:20;27.60;36.50
10089;DHT22;51898;49.864;8.550;2023-07-20T15:52:22;27.60;36.50
10089;DHT22;51898;49.864;8.550;2023-07-20T15:55:24;27.60;36.40
10089;DHT22;51898;49.864;8.550;2023-07-20T15:58:26;27.60;35.90
10089;DHT22;51898;49.864;8.550;2023-07-20T16:01:29;27.30;36.10
10089;DHT22;51898;49.864;8.550;2023-07-20T16:04:31;27.60;36.50
10089;DHT22;51898;49.864;8.550;2023-07-20T16:07:33;28.50;35.20
10089;DHT22;51898;49.864;8.550;2023-07-20T16:10:35;29.30;34.60
10089;DHT22;51898;49.864;8.550;2023-07-20T16:13:36;29.00;34.50
10089;DHT22;51898;49.864;8.550;2023-07-20T16:16:38;28.60;34.60
10089;DHT22;51898;49.864;8.550;2023-07-20T16:19:40;27.90;35.00
10089;DHT22;51898;49.864;8.550;2023-07-20T16:22:42;27.20;36.30
10089;DHT22;51898;49.864;8.550;2023-07-20T16:25:47;26.70;36.80
10089;DHT22;51898;49.864;8.550;2023-07-20T16:28:49;26.20;37.90
10089;DHT22;51898;49.864;8.550;2023-07-20T16:31:50;26.10;38.40
10089;DHT22;51898;49.864;8.550;2023-07-20T16:34:55;26.00;38.10
10089;DHT22;51898;49.864;8.550;2023-07-20T16:37:57;26.00;38.20
10089;DHT22;51898;49.864;8.550;2023-07-20T16:41:05;25.80;38.20
10089;DHT22;51898;49.864;8.550;2023-07-20T16:44:10;25.70;38.70
10089;DHT22;51898;49.864;8.550;2023-07-20T16:47:12;25.70;38.60
10089;DHT22;51898;49.864;8.550;2023-07-20T16:50:13;25.60;39.70
10089;DHT22;51898;49.864;8.550;2023-07-20T16:53:16;25.80;39.40
10089;DHT22;51898;49.864;8.550;2023-07-20T16:56:18;26.40;37.70
10089;DHT22;51898;49.864;8.550;2023-07-20T16:59:19;26.80;37.00
10089;DHT22;51898;49.864;8.550;2023-07-20T17:02:21;26.70;37.30
10089;DHT22;51898;49.864;8.550;2023-07-20T17:05:23;27.20;36.30
10089;DHT22;51898;49.864;8.550;2023-07-20T17:08:25;27.70;35.40
10089;DHT22;51898;49.864;8.550;2023-07-20T17:11:27;28.10;35.20
10089;DHT22;51898;49.864;8.550;2023-07-20T17:14:28;28.80;34.10
10089;DHT22;51898;49.864;8.550;2023-07-20T17:17:30;29.40;33.30
10089;DHT22;51898;49.864;8.550;2023-07-20T17:20:32;29.90;32.70
10089;DHT22;51898;49.864;8.550;2023-07-20T17:23:38;30.40;32.20
10089;DHT22;51898;49.864;8.550;2023-07-20T17:26:43;30.00;32.40
10089;DHT22;51898;49.864;8.550;2023-07-20T17:29:45;30.30;32.10
10089;DHT22;51898;49.864;8.550;2023-07-20T17:32:48;30.40;32.20
10089;DHT22;51898;49.864;8.550;2023-07-20T17:35:50;30.30;31.80
10089;DHT22;51898;49.864;8.550;2023-07-20T17:38:52;30.10;32.30
10089;DHT22;51898;49.864;8.550;2023-07-20T17:41:53;29.70;32.30
10089;DHT22;51898;49.864;8.550;2023-07-20T17:44:55;29.10;33.40
10089;DHT22;51898;49.864;8.550;2023-07-20T17:47:57;28.50;34.30
10089;DHT22;51898;49.864;8.550;2023-07-20T17:51:05;28.10;34.80
10089;DHT22;51898;49.864;8.550;2023-07-20T17:54:08;27.50;35.30
10089;DHT22;51898;49.864;8.550;2023-07-20T17:57:10;27.00;36.50
10089;DHT22;51898;49.864;8.550;2023-07-20T18:00:12;26.60;37.10
10089;DHT22;51898;49.864;8.550;2023-07-20T18:03:17;25.90;37.90
10089;DHT22;51898;49.864;8.550;2023-07-20T18:06:18;25.80;38.10
10089;DHT22;51898;49.864;8.550;2023-07-20T18:09:20;25.40;38.90
10089;DHT22;51898;49.864;8.550;2023-07-20T18:12:22;25.10;39.50
10089;DHT22;51898;49.864;8.550;2023-07-20T18:15:23;25.00;39.70
10089;DHT22;51898;49.864;8.550;2023-07-20T18:18:26;24.90;40.10
10089;DHT22;51898;49.864;8.550;2023-07-20T18:21:27;24.80;40.50
10089;DHT22;51898;49.864;8.550;2023-07-20T18:24:29;24.70;40.90
10089;DHT22;51898;49.864;8.550;2023-07-20T18:27:31;24.60;41.00
10089;DHT22;51898;49.864;8.550;2023-07-20T18:30:33;24.60;40.80
10089;DHT22;51898;49.864;8.550;2023-07-20T18:33:36;24.50;41.70
10089;DHT22;51898;49.864;8.550;2023-07-20T18:36:38;24.50;42.00
10089;DHT22;51898;49.864;8.550;2023-07-20T18:39:40;24.40;42.60
10089;DHT22;51898;49.864;8.550;2023-07-20T18:42:41;24.40;42.40
10089;DHT22;51898;49.864;8.550;2023-07-20T18:45:43;24.40;42.80
10089;DHT22;51898;49.864;8.550;2023-07-20T18:48:47;24.30;42.10
10089;DHT22;51898;49.864;8.550;2023-07-20T18:51:49;24.10;42.00
10089;DHT22;51898;49.864;8.550;2023-07-20T18:54:50;23.90;42.20
10089;DHT22;51898;49.864;8.550;2023-07-20T18:57:52;23.80;43.30
10089;DHT22;51898;49.864;8.550;2023-07-20T19:00:58;23.60;42.70
10089;DHT22;51898;49.864;8.550;2023-07-20T19:04:00;23.60;42.90
10089;DHT22;51898;49.864;8.550;2023-07-20T19:07:03;23.50;43.20
10089;DHT22;51898;49.864;8.550;2023-07-20T19:10:06;23.40;43.30
10089;DHT22;51898;49.864;8.550;2023-07-20T19:13:08;23.30;43.60
10089;DHT22;51898;49.864;8.550;2023-07-20T19:16:10;23.20;44.10
10089;DHT22;51898;49.864;8.550;2023-07-20T19:19:12;23.20;44.90
10089;DHT22;51898;49.864;8.550;2023-07-20T19:22:13;23.00;44.60
10089;DHT22;51898;49.864;8.550;2023-07-20T19:25:17;22.90;45.00
10089;DHT22;51898;49.864;8.550;2023-07-20T19:28:22;22.80;45.20
10089;DHT22;51898;49.864;8.550;2023-07-20T19:31:24;22.70;45.40